Latest Coastal Weather Observations for Newcastle Nobbys

IDN60701

Issued at 7:41 am EST Monday 25 May 2015 (issued every 10 minutes, with the page automatically refreshed every 10 minutes)

About coastal observations | Map of coastal stations | Coastal observations for NSW | Marine services | Other Formats
Station Details ID: 061055 Name: NEWCASTLE NOBBYS SIGNAL STATION AWS Lat: -32.92 Lon: 151.80 Height: 33.0 m
Data from the previous 72 hours. | See also: Recent months at Newcastle Nobbys
Date/Time
EST
Temp

°C
Wind Pressure Rain
since 9am
mm
Weather Cloud Vis
km
Sea
Height
m
Swell
Dir
 
Speed
knots
Gust
knots
hPa Trend Height
m
Period
s
Dir
25/07:30am 10.5 NW 7 9 - - 0.0 - - - - - - -
25/07:00am 10.0 WNW 8 9 - - 0.0 - - - - - - -
25/06:30am 10.4 NW 7 8 - - 0.0 - - - - - - -
25/06:00am 10.8 NW 5 6 - - 0.0 - - - - - - -
25/05:30am 10.9 NW 5 7 - - 0.0 - - - - - - -
25/05:00am 10.9 NNW 7 8 - - 0.0 - - - - - - -
25/04:30am 10.6 WNW 6 7 - - 0.0 - - - - - - -
25/04:00am 10.7 WNW 7 8 - - 0.0 - - - - - - -
25/03:30am 10.9 WNW 5 7 - - 0.0 - - - - - - -
25/03:00am 11.3 WNW 5 7 - - 0.0 - - - - - - -
25/02:30am 11.8 NW 6 8 - - 0.0 - - - - - - -
25/02:00am 12.4 NW 5 7 - - 0.0 - - - - - - -
25/01:30am 12.6 NW 4 5 - - 0.0 - - - - - - -
25/01:00am 12.5 WNW 5 6 - - 0.0 - - - - - - -
25/12:30am 12.4 WNW 6 8 - - 0.0 - - - - - - -
25/12:00am 12.4 WNW 5 7 - - 0.0 - - - - - - -
 
Date/Time
EST
Temp

°C
Wind Pressure Rain
since 9am
mm
Weather Cloud Vis
km
Sea
Height
m
Swell
Dir
 
Speed
knots
Gust
knots
hPa Trend Height
m
Period
s
Dir
24/11:30pm 12.8 NW 5 6 - - 0.0 - - - - - - -
24/11:00pm 13.5 NW 5 6 - - 0.0 - - - - - - -
24/10:30pm 14.0 NW 5 6 - - 0.0 - - - - - - -
24/10:00pm 14.9 W 6 7 - - 0.0 - - - - - - -
24/09:30pm 15.0 W 4 5 - - 0.0 - - - - - - -
24/09:00pm 15.1 WNW 5 5 - - 0.0 - - - - - - -
24/08:30pm 15.3 W 5 5 - - 0.0 - - - - - - -
24/08:00pm 15.5 W 4 4 - - 0.0 - - - - - - -
24/07:30pm 16.5 SW 4 5 - - 0.0 - - - - - - -
24/07:00pm 16.2 WSW 4 5 - - 0.0 - - - - - - -
24/06:30pm 16.8 SW 5 7 - - 0.0 - - - - - - -
24/06:00pm 16.6 SW 4 6 - - 0.0 - - - - - - -
24/05:30pm 16.9 SSW 4 6 - - 0.0 - - - - - - -
24/05:00pm 16.7 SSW 5 6 - - 0.0 - - - - - - -
24/04:30pm 16.8 SW 5 8 - - 0.0 - - - - - - -
24/04:00pm 16.9 SW 4 7 - - 0.0 - - - - - - -
24/03:30pm 17.0 SSW 7 10 - - 0.0 - - - - - - -
24/03:00pm 17.0 SW 7 10 - - 0.0 - - - - - - -
24/02:30pm 17.0 SW 7 10 - - 0.0 - - - - - - -
24/02:00pm 16.9 SSW 10 13 - - 0.0 - - - - - - -
24/01:30pm 17.2 SSW 10 14 - - 0.0 - - - - - - -
24/01:00pm 17.7 SSW 8 11 - - 0.0 - - - - - - -
24/12:30pm 18.0 SSW 7 10 - - 0.0 - - - - - - -
24/12:00pm 18.6 S 5 9 - - 0.0 - - - - - - -
24/11:30am 19.4 W 4 7 - - 0.0 - - - - - - -
24/11:00am 18.5 WNW 7 9 - - 0.0 - - - - - - -
24/10:30am 16.7 WNW 6 7 - - 0.0 - - - - - - -
24/10:00am 13.6 NW 4 5 - - 0.0 - - - - - - -
24/09:30am 13.8 NW 7 8 - - 0.0 - - - - - - -
24/09:00am 11.4 NW 6 8 - - 0.2 - - - - - - -
24/08:30am 10.8 NW 6 8 - - 0.2 - - - - - - -
24/08:00am 10.2 WNW 6 8 - - 0.2 - - - - - - -
24/07:30am 10.5 NW 8 10 - - 0.2 - - - - - - -
24/07:00am 10.9 NNW 4 6 - - 0.2 - - - - - - -
24/06:30am 11.1 NNW 6 7 - - 0.2 - - - - - - -
24/06:00am 10.9 NW 6 7 - - 0.2 - - - - - - -
24/05:30am 10.8 NW 8 11 - - 0.2 - - - - - - -
24/05:00am 11.6 NW 8 9 - - 0.2 - - - - - - -
24/04:30am 13.1 WNW 8 9 - - 0.2 - - - - - - -
24/04:00am 13.4 W 7 9 - - 0.2 - - - - - - -
24/03:30am 13.7 WSW 6 8 - - 0.2 - - - - - - -
24/03:00am 13.4 W 8 9 - - 0.2 - - - - - - -
24/02:30am 13.6 W 7 9 - - 0.2 - - - - - - -
24/02:00am 13.4 W 7 9 - - 0.2 - - - - - - -
24/01:30am 13.3 W 9 10 - - 0.2 - - - - - - -
24/01:00am 13.5 W 7 8 - - 0.2 - - - - - - -
24/12:30am 13.8 W 8 10 - - 0.2 - - - - - - -
24/12:00am 14.2 WSW 6 9 - - 0.2 - - - - - - -
 
Date/Time
EST
Temp

°C
Wind Pressure Rain
since 9am
mm
Weather Cloud Vis
km
Sea
Height
m
Swell
Dir
 
Speed
knots
Gust
knots
hPa Trend Height
m
Period
s
Dir
23/11:30pm 14.5 WSW 6 10 - - 0.2 - - - - - - -
23/11:00pm 13.7 W 7 9 - - 0.2 - - - - - - -
23/10:30pm 15.1 WSW 7 10 - - 0.2 - - - - - - -
23/10:00pm 15.4 SW 8 11 - - 0.2 - - - - - - -
23/09:30pm 15.2 WSW 7 12 - - 0.2 - - - - - - -
23/09:00pm 14.9 WSW 6 10 - - 0.2 - - - - - - -
23/08:30pm 14.5 WSW 7 13 - - 0.2 - - - - - - -
23/08:00pm 15.6 WSW 8 13 - - 0.2 - - - - - - -
23/07:30pm 15.8 SW 10 15 - - 0.2 - - - - - - -
23/07:00pm 16.0 SW 8 12 - - 0.2 - - - - - - -
23/06:30pm 16.5 SW 8 14 - - 0.2 - - - - - - -
23/06:00pm 17.2 SSW 16 23 - - 0.2 - - - - - - -
23/05:30pm 17.2 SSW 16 22 - - 0.2 - - - - - - -
23/05:00pm 17.1 SSW 14 18 - - 0.2 - - - - - - -
23/04:30pm 16.6 SW 9 16 - - 0.0 - - - - - - -
23/04:00pm 16.2 WSW 8 13 - - 0.0 - - - - - - -
23/03:30pm 15.9 WSW 8 13 - - 0.0 - - - - - - -
23/03:00pm 15.9 SW 9 15 - - 0.0 - - - - - - -
23/02:30pm 15.8 SW 12 19 - - 0.0 - - - - - - -
23/02:00pm 16.3 SW 12 17 - - 0.0 - - - - - - -
23/01:30pm 16.4 SW 10 17 - - 0.0 - - - - - - -
23/01:00pm 15.7 SW 12 18 - - 0.0 - - - - - - -
23/12:30pm 16.8 SSW 14 18 - - 0.0 - - - - - - -
23/12:00pm 16.3 SW 13 17 - - 0.0 - - - - - - -
23/11:30am 16.4 SSW 15 22 - - 0.0 - - - - - - -
23/11:19am 16.4 SW 15 25 - - 0.0 - - - - - - -
23/11:00am 16.4 SSW 17 25 - - 0.0 - - - - - - -
23/10:30am 16.4 SSW 15 22 - - 0.0 - - - - - - -
23/10:00am 15.5 SW 13 19 - - 0.0 - - - - - - -
23/09:30am 14.5 SW 14 21 - - 0.0 - - - - - - -
23/09:00am 13.7 SW 10 18 - - 22.6 - - - - - - -
23/08:30am 13.1 SW 10 17 - - 22.6 - - - - - - -
23/08:00am 13.0 SW 10 17 - - 22.6 - - - - - - -
23/07:30am 12.5 SW 12 20 - - 22.6 - - - - - - -
23/07:00am 12.3 SW 10 17 - - 22.6 - - - - - - -
23/06:30am 12.4 SW 8 13 - - 22.2 - - - - - - -
23/06:00am 12.4 SW 10 17 - - 22.0 Recent precip. - - - - - -
23/05:30am 12.5 SW 10 15 - - 22.0 - - - - - - -
23/05:00am 12.7 WSW 8 16 - - 21.6 - - - - - - -
23/04:30am 13.0 SW 9 15 - - 21.0 - - - - - - -
23/04:00am 12.9 WSW 10 16 - - 20.2 - - - - - - -
23/03:30am 13.2 WSW 8 12 - - 20.2 - - - - - - -
23/03:00am 13.3 WSW 10 16 - - 20.0 - - - - - - -
23/02:30am 13.7 WSW 8 14 - - 20.0 - - - - - - -
23/02:00am 13.9 W 7 9 - - 20.0 - - - - - - -
23/01:30am 14.7 SW 8 11 - - 20.0 - - - - - - -
23/01:06am 17.4 S 21 30 - - 20.0 - - - - - - -
23/01:00am 17.3 SSE 24 30 - - 20.0 - - - - - - -
23/12:44am 17.2 SSE 25 35 - - 20.0 - - - - - - -
23/12:30am 16.6 SSE 31 39 - - 20.0 - - - - - - -
23/12:02am 16.5 SSE 26 36 - - 20.0 - - - - - - -
23/12:00am 16.5 SSE 29 39 - - 20.0 Recent precip. - - - - - -
 
Date/Time
EST
Temp

°C
Wind Pressure Rain
since 9am
mm
Weather Cloud Vis
km
Sea
Height
m
Swell
Dir
 
Speed
knots
Gust
knots
hPa Trend Height
m
Period
s
Dir
22/11:31pm 15.7 S 25 35 - - 20.0 - - - - - - -
22/11:30pm 15.7 S 26 35 - - 20.0 - - - - - - -
22/11:18pm 16.9 S 26 38 - - 19.8 - - - - - - -
22/11:00pm 17.4 S 25 31 - - 19.8 - - - - - - -
22/10:30pm 17.5 S 28 34 - - 19.8 - - - - - - -
22/10:00pm 17.2 S 27 34 - - 19.8 - - - - - - -
22/09:30pm 17.3 S 29 36 - - 19.8 - - - - - - -
22/09:00pm 17.5 S 30 36 - - 19.8 Recent precip. - - - - - -
22/08:48pm 17.0 SSW 14 37 - - 19.8 - - - - - - -
22/08:45pm 15.8 SW 12 37 - - 19.8 - - - - - - -
22/08:36pm 17.3 S 24 33 - - 19.8 - - - - - - -
22/08:30pm 16.6 S 28 37 - - 19.8 - - - - - - -
22/08:00pm 16.1 S 32 43 - - 19.6 - - - - - - -
22/07:59pm 16.6 S 32 43 - - 19.6 - - - - - - -
22/07:30pm 16.6 S 31 37 - - 19.6 - - - - - - -
22/07:01pm 14.5 S 32 42 - - 19.6 - - - - - - -
22/07:00pm 14.4 S 33 44 - - 19.6 - - - - - - -
22/06:55pm 13.7 S 34 44 - - 19.6 - - - - - - -
22/06:44pm 17.2 S 27 37 - - 18.8 - - - - - - -
22/06:30pm 17.3 S 32 41 - - 18.8 - - - - - - -
22/06:14pm 16.1 SSW 26 36 - - 18.8 - - - - - - -
22/06:03pm 15.3 S 33 46 - - 18.8 - - - - - - -
22/06:00pm 15.3 S 36 46 - - 18.8 - - - - - - -
22/05:49pm 16.9 S 33 43 - - 18.8 - - - - - - -
22/05:30pm 17.4 S 33 39 - - 18.8 - - - - - - -
22/05:04pm 17.7 S 32 42 - - 18.8 - - - - - - -
22/05:00pm 17.7 S 33 42 - - 18.8 - - - - - - -
22/04:30pm 17.7 S 35 45 - - 18.8 - - - - - - -
22/04:00pm 17.0 SSW 34 45 - - 18.8 - - - - - - -
22/03:30pm 16.9 SSW 31 43 - - 18.2 - - - - - - -
22/03:00pm 15.9 S 34 48 - - 18.0 Rain - - - - - -
22/02:41pm 16.9 S 33 44 - - 17.8 - - - - - - -
22/02:30pm 16.0 SSW 33 43 - - 17.6 - - - - - - -
22/02:00pm 16.6 SSW 32 43 - - 16.0 - - - - - - -
22/01:30pm 16.0 S 29 41 - - 15.2 - - - - - - -
22/01:26pm 17.0 S 27 39 - - 15.0 - - - - - - -
22/01:00pm 16.1 S 31 39 - - 14.0 - - - - - - -
22/12:53pm 17.1 S 29 39 - - 13.8 - - - - - - -
22/12:30pm 16.6 S 27 31 - - 13.8 - - - - - - -
22/12:00pm 15.9 SSE 32 38 - - 13.2 Rain - - - - - -
22/11:30am 15.6 SSE 28 36 - - 11.0 - - - - - - -
22/11:29am 15.4 SSE 27 36 - - 11.0 - - - - - - -
22/11:22am 15.6 S 15 28 - - 10.6 - - - - - - -
22/11:00am 13.9 W 11 15 - - 6.8 - - - - - - -
22/10:30am 13.8 WSW 14 20 - - 5.4 - - - - - - -
22/10:00am 13.7 WSW 12 18 - - 3.2 - - - - - - -
22/09:30am 14.3 WSW 13 19 - - 0.4 - - - - - - -
22/09:00am 15.1 WSW 12 18 - - 3.4 - - - - - - -
22/08:30am 15.1 WSW 10 16 - - 3.4 - - - - - - -
22/08:00am 14.4 W 9 11 - - 3.4 - - - - - - -

Other Formats:

Comma delimited format used in spreadsheet applications
http://www.bom.gov.au/fwo/IDN60701/IDN60701.94774.axf

JavaScript Object Notation format (JSON) in row-major order
http://www.bom.gov.au/fwo/IDN60701/IDN60701.94774.json